Time;durP1;ratioP1;P1;durP2;ratioP2;P2;SDS_P1;SDS_P2;PMS_P1;PMS_P2;Temp;Humidity;BMP_temperature;BMP_pressure;BME280_temperature;BME280_humidity;BME280_pressure;Samples;Min_cycle;Max_cycle;Signal;HPM_P1;HPM_P2
2022/09/14 00:00:00;;;;;;;9.40;1.48;;;;;;;;;;5093515;28;20032;-81
2022/09/14 00:02:26;;;;;;;5.75;1.52;;;;;;;;;;5093771;28;20028;-81
2022/09/14 00:04:53;;;;;;;5.88;1.60;;;;;;;;;;5093365;28;20047;-81
2022/09/14 00:07:19;;;;;;;8.93;2.00;;;;;;;;;;5093717;28;20238;-81
2022/09/14 00:09:45;;;;;;;7.53;1.60;;;;;;;;;;5093512;28;20020;-81
2022/09/14 00:12:11;;;;;;;4.85;1.40;;;;;;;;;;5093224;28;20020;-81
2022/09/14 00:14:38;;;;;;;6.63;1.55;;;;;;;;;;5093271;28;20016;-81
2022/09/14 00:17:04;;;;;;;8.70;2.35;;;;;;;;;;5074926;28;20024;-81
2022/09/14 00:19:30;;;;;;;6.93;1.35;;;;;;;;;;5093340;28;20465;-81
2022/09/14 00:21:57;;;;;;;6.60;1.48;;;;;;;;;;5093455;28;20152;-80
2022/09/14 00:24:24;;;;;;;6.20;1.27;;;;;;;;;;5074721;28;20024;-80
2022/09/14 00:26:50;;;;;;;10.38;1.75;;;;;;;;;;5092949;28;20032;-81
2022/09/14 00:29:16;;;;;;;5.78;1.73;;;;;;;;;;5108599;28;20022;-81
2022/09/14 00:31:42;;;;;;;6.40;2.53;;;;;;;;;;5113322;28;20434;-81
2022/09/14 00:34:10;;;;;;;10.40;1.75;;;;;;;;;;5113271;28;20374;-81
2022/09/14 00:36:38;;;;;;;9.75;1.92;;;;;;;;;;5113270;28;20019;-81
2022/09/14 00:39:05;;;;;;;12.90;1.67;;;;;;;;;;5113550;28;20062;-81
2022/09/14 00:41:32;;;;;;;7.10;1.63;;;;;;;;;;5113353;28;20365;-81
2022/09/14 00:44:03;;;;;;;9.63;1.88;;;;;;;;;;5113413;28;20412;-81
2022/09/14 00:46:31;;;;;;;9.43;1.88;;;;;;;;;;5113001;28;20031;-81
2022/09/14 00:48:59;;;;;;;6.63;1.60;;;;;;;;;;5112937;28;20096;-81
2022/09/14 00:51:25;;;;;;;6.63;2.08;;;;;;;;;;5113375;28;20415;-81
2022/09/14 00:53:51;;;;;;;7.10;1.70;;;;;;;;;;5113127;28;20463;-80
2022/09/14 00:56:18;;;;;;;4.57;1.70;;;;;;;;;;5113102;28;20031;-81
2022/09/14 00:58:45;;;;;;;6.65;1.77;;;;;;;;;;5112281;28;20031;-81
2022/09/14 01:01:11;;;;;;;10.00;1.90;;;;;;;;;;5112815;28;20376;-81
2022/09/14 01:03:37;;;;;;;7.40;2.53;;;;;;;;;;5113025;28;20042;-81
2022/09/14 01:06:15;;;;;;;8.10;1.80;;;;;;;;;;5111127;28;20369;-81
2022/09/14 01:09:00;;;;;;;6.75;1.63;;;;;;;;;;5092679;28;20082;-81
2022/09/14 01:11:46;;;;;;;5.25;1.60;;;;;;;;;;5092330;28;20032;-81
2022/09/14 01:14:32;;;;;;;9.88;1.95;;;;;;;;;;5041453;28;20036;-81
2022/09/14 01:17:06;;;;;;;8.55;1.73;;;;;;;;;;5092376;28;20017;-81
2022/09/14 01:19:50;;;;;;;5.45;1.85;;;;;;;;;;5092315;28;20500;-81
2022/09/14 01:22:20;;;;;;;7.70;2.28;;;;;;;;;;5092378;28;20043;-81
2022/09/14 01:24:51;;;;;;;8.65;2.10;;;;;;;;;;5092188;28;20150;-81
2022/09/14 01:27:24;;;;;;;9.38;2.50;;;;;;;;;;5092328;28;20024;-81
2022/09/14 01:30:10;;;;;;;10.10;2.80;;;;;;;;;;5074031;28;20466;-81
2022/09/14 01:32:39;;;;;;;9.07;2.22;;;;;;;;;;5092088;28;20024;-81
2022/09/14 01:35:08;;;;;;;6.57;1.80;;;;;;;;;;5092446;28;20119;-81
2022/09/14 01:37:40;;;;;;;6.55;1.90;;;;;;;;;;5092212;28;20031;-81
2022/09/14 01:40:22;;;;;;;6.55;2.30;;;;;;;;;;5092205;28;20024;-81
2022/09/14 01:42:50;;;;;;;10.57;1.60;;;;;;;;;;5092334;28;20415;-81
2022/09/14 01:45:18;;;;;;;12.30;2.25;;;;;;;;;;5092093;28;20020;-81
2022/09/14 01:47:50;;;;;;;6.40;1.98;;;;;;;;;;5110799;28;20130;-81
2022/09/14 01:50:22;;;;;;;8.40;2.05;;;;;;;;;;5112228;28;20019;-81
2022/09/14 01:52:52;;;;;;;6.55;1.92;;;;;;;;;;5112535;28;20084;-81
2022/09/14 01:55:20;;;;;;;6.78;1.73;;;;;;;;;;5112390;28;20050;-80
2022/09/14 01:57:53;;;;;;;7.10;1.90;;;;;;;;;;5112628;28;20020;-81
2022/09/14 02:00:19;;;;;;;;;;;;;;;;;;5094403;28;20493;-81
2022/09/14 02:02:56;;;;;;;5.50;1.80;;;;;;;;;;5112700;28;19978;-81
2022/09/14 02:05:28;;;;;;;6.80;2.03;;;;;;;;;;5093903;28;20023;-80
2022/09/14 02:07:54;;;;;;;9.00;2.53;;;;;;;;;;5112450;28;20099;-81
2022/09/14 02:10:23;;;;;;;12.07;2.25;;;;;;;;;;5114268;28;20405;-81
2022/09/14 02:12:49;;;;;;;9.65;2.42;;;;;;;;;;5116240;28;20047;-81
2022/09/14 02:15:15;;;;;;;8.23;2.55;;;;;;;;;;5097471;28;20026;-81
2022/09/14 02:17:42;;;;;;;10.80;2.70;;;;;;;;;;5115880;28;20149;-81
2022/09/14 02:20:10;;;;;;;6.55;2.20;;;;;;;;;;5116165;28;20069;-80
2022/09/14 02:22:37;;;;;;;8.95;2.28;;;;;;;;;;5115997;28;20028;-81
2022/09/14 02:25:03;;;;;;;13.45;2.40;;;;;;;;;;5115779;28;20046;-81
2022/09/14 02:27:29;;;;;;;12.52;2.55;;;;;;;;;;5096866;28;20016;-80
2022/09/14 02:29:55;;;;;;;9.40;2.92;;;;;;;;;;5095372;28;20048;-80
2022/09/14 02:32:30;;;;;;;11.30;2.67;;;;;;;;;;5095198;28;20050;-80
2022/09/14 02:35:34;;;;;;;11.82;2.47;;;;;;;;;;5095281;28;20355;-81
2022/09/14 02:38:00;;;;;;;7.25;2.30;;;;;;;;;;5012798;28;20115;-81
2022/09/14 02:40:45;;;;;;;5.72;2.15;;;;;;;;;;5012983;28;20069;-80
2022/09/14 02:43:11;;;;;;;8.95;2.58;;;;;;;;;;5061922;28;20123;-80
2022/09/14 02:45:37;;;;;;;7.22;2.40;;;;;;;;;;5095130;28;20442;-81
2022/09/14 02:48:06;;;;;;;6.82;2.20;;;;;;;;;;5094881;28;20109;-80
2022/09/14 02:50:34;;;;;;;5.15;2.20;;;;;;;;;;5095127;28;20020;-80
2022/09/14 02:53:21;;;;;;;6.85;2.40;;;;;;;;;;5095172;28;20103;-80
2022/09/14 02:56:00;;;;;;;8.52;2.10;;;;;;;;;;5095061;28;20035;-81
2022/09/14 02:58:33;;;;;;;8.60;2.28;;;;;;;;;;5094763;28;20024;-80
2022/09/14 03:00:59;;;;;;;8.73;2.47;;;;;;;;;;5094770;28;20039;-80
2022/09/14 03:03:25;;;;;;;7.28;2.15;;;;;;;;;;5094553;28;20028;-81
2022/09/14 03:05:51;;;;;;;10.88;2.35;;;;;;;;;;5094775;28;20031;-81
2022/09/14 03:08:17;;;;;;;6.80;1.80;;;;;;;;;;5094884;28;20402;-81
2022/09/14 03:10:44;;;;;;;5.72;1.90;;;;;;;;;;5094428;28;20028;-81
2022/09/14 03:13:10;;;;;;;10.40;1.83;;;;;;;;;;5094234;28;20052;-81
2022/09/14 03:15:36;;;;;;;8.98;2.92;;;;;;;;;;5094534;28;20509;-81
2022/09/14 03:18:02;;;;;;;6.85;1.85;;;;;;;;;;5094434;28;20117;-81
2022/09/14 03:20:31;;;;;;;10.57;1.95;;;;;;;;;;5094544;28;20039;-81
2022/09/14 03:23:00;;;;;;;7.78;2.30;;;;;;;;;;5093777;28;20020;-81
2022/09/14 03:25:27;;;;;;;9.82;1.92;;;;;;;;;;5094195;28;20354;-81
2022/09/14 03:27:54;;;;;;;7.93;1.67;;;;;;;;;;5094217;28;20103;-81
2022/09/14 03:30:20;;;;;;;6.65;1.63;;;;;;;;;;5075932;28;20016;-81
2022/09/14 03:32:47;;;;;;;4.80;1.70;;;;;;;;;;5094144;28;20020;-80
2022/09/14 03:35:13;;;;;;;6.40;1.48;;;;;;;;;;5094558;28;20024;-81
2022/09/14 03:37:40;;;;;;;8.48;1.90;;;;;;;;;;5094125;28;20028;-80
2022/09/14 03:40:06;;;;;;;5.13;1.58;;;;;;;;;;5075496;28;20028;-80
2022/09/14 03:42:32;;;;;;;4.38;1.73;;;;;;;;;;5093889;28;20031;-81
2022/09/14 03:44:59;;;;;;;5.95;1.48;;;;;;;;;;5093787;28;20031;-80
2022/09/14 03:47:25;;;;;;;7.63;1.60;;;;;;;;;;5091413;28;20363;-80
2022/09/14 03:49:51;;;;;;;8.55;1.75;;;;;;;;;;5114249;28;20027;-80
2022/09/14 03:52:17;;;;;;;8.40;1.73;;;;;;;;;;5114559;28;20054;-81
2022/09/14 03:54:43;;;;;;;4.32;1.50;;;;;;;;;;5114032;28;20024;-81
2022/09/14 03:57:09;;;;;;;8.30;1.67;;;;;;;;;;5114306;28;20031;-80
2022/09/14 03:59:35;;;;;;;5.07;1.73;;;;;;;;;;5113969;28;20129;-80
2022/09/14 04:02:02;;;;;;;5.80;1.63;;;;;;;;;;5114162;28;20028;-80
2022/09/14 04:04:28;;;;;;;5.38;1.40;;;;;;;;;;5095951;28;20080;-80
2022/09/14 04:06:54;;;;;;;7.13;2.22;;;;;;;;;;5113878;28;20024;-81
2022/09/14 04:09:21;;;;;;;6.43;1.48;;;;;;;;;;5114046;28;20046;-80
2022/09/14 04:11:47;;;;;;;4.97;1.42;;;;;;;;;;5114002;28;20354;-80
2022/09/14 04:14:13;;;;;;;6.47;1.88;;;;;;;;;;5113587;28;20517;-80
2022/09/14 04:16:39;;;;;;;6.90;1.90;;;;;;;;;;5114072;28;20051;-80
2022/09/14 04:19:06;;;;;;;4.45;1.60;;;;;;;;;;5114024;28;20051;-80
2022/09/14 04:21:33;;;;;;;7.65;1.73;;;;;;;;;;5095189;28;20110;-80
2022/09/14 04:23:59;;;;;;;10.13;2.05;;;;;;;;;;5113776;28;20117;-80
2022/09/14 04:26:26;;;;;;;5.75;1.42;;;;;;;;;;5113421;28;20023;-80
2022/09/14 04:28:52;;;;;;;6.35;1.60;;;;;;;;;;5101352;28;20106;-80
2022/09/14 04:31:18;;;;;;;4.93;1.42;;;;;;;;;;5092884;28;20095;-80
2022/09/14 04:33:44;;;;;;;6.40;1.60;;;;;;;;;;5092287;28;20411;-80
2022/09/14 04:36:12;;;;;;;3.97;1.50;;;;;;;;;;5093039;28;20016;-80
2022/09/14 04:38:38;;;;;;;10.18;1.73;;;;;;;;;;5093332;28;20431;-80
2022/09/14 04:41:05;;;;;;;6.97;1.60;;;;;;;;;;5092997;28;20028;-80
2022/09/14 04:43:31;;;;;;;6.30;1.83;;;;;;;;;;5093051;28;20028;-80
2022/09/14 04:46:01;;;;;;;4.13;1.60;;;;;;;;;;5092794;28;20378;-80
2022/09/14 04:48:32;;;;;;;8.63;2.00;;;;;;;;;;5092695;28;20024;-80
2022/09/14 04:51:00;;;;;;;5.78;1.60;;;;;;;;;;5092866;28;20028;-80
2022/09/14 04:53:26;;;;;;;8.30;1.92;;;;;;;;;;5092469;28;20445;-80
2022/09/14 04:55:52;;;;;;;3.85;1.70;;;;;;;;;;5092708;28;20051;-80
2022/09/14 04:58:18;;;;;;;6.50;1.65;;;;;;;;;;5092773;28;20056;-80
2022/09/14 05:00:44;;;;;;;6.82;1.73;;;;;;;;;;5092525;28;20055;-80
2022/09/14 05:03:10;;;;;;;7.22;1.40;;;;;;;;;;5092913;28;20039;-80
2022/09/14 05:05:37;;;;;;;4.55;1.58;;;;;;;;;;5092536;28;20097;-80
2022/09/14 05:08:03;;;;;;;4.40;1.50;;;;;;;;;;5092449;28;20020;-80
2022/09/14 05:10:29;;;;;;;8.30;1.60;;;;;;;;;;5092757;28;20042;-80
2022/09/14 05:12:55;;;;;;;4.97;1.50;;;;;;;;;;5092539;28;20109;-80
2022/09/14 05:15:21;;;;;;;5.82;1.60;;;;;;;;;;5092593;28;20031;-80
2022/09/14 05:17:47;;;;;;;3.65;1.25;;;;;;;;;;5092650;28;20028;-80
2022/09/14 05:20:13;;;;;;;4.28;1.30;;;;;;;;;;5092482;28;20047;-80
2022/09/14 05:22:39;;;;;;;7.15;1.65;;;;;;;;;;5092250;28;20107;-80
2022/09/14 05:25:06;;;;;;;7.55;1.70;;;;;;;;;;5092180;28;20047;-80
2022/09/14 05:27:32;;;;;;;8.02;1.67;;;;;;;;;;5092151;28;20016;-80
2022/09/14 05:29:58;;;;;;;9.38;1.70;;;;;;;;;;5073835;28;20030;-80
2022/09/14 05:32:24;;;;;;;6.43;1.30;;;;;;;;;;5074038;28;20427;-80
2022/09/14 05:34:50;;;;;;;5.35;1.60;;;;;;;;;;5073874;28;20433;-80
2022/09/14 05:37:16;;;;;;;6.13;1.75;;;;;;;;;;5073924;28;20477;-80
2022/09/14 05:39:42;;;;;;;9.27;2.22;;;;;;;;;;5092178;28;20378;-80
2022/09/14 05:42:08;;;;;;;13.57;2.38;;;;;;;;;;5092016;28;20450;-80
2022/09/14 05:44:34;;;;;;;8.95;2.25;;;;;;;;;;5074608;28;20020;-80
2022/09/14 05:47:00;;;;;;;3.72;1.73;;;;;;;;;;5095937;28;20024;-80
2022/09/14 05:49:26;;;;;;;10.15;2.50;;;;;;;;;;5096150;28;20024;-80
2022/09/14 05:51:52;;;;;;;8.10;1.80;;;;;;;;;;5096792;28;20058;-80
2022/09/14 05:54:18;;;;;;;6.07;1.73;;;;;;;;;;5077672;28;20055;-80
2022/09/14 05:56:44;;;;;;;4.75;1.40;;;;;;;;;;5096173;28;20024;-80
2022/09/14 05:59:10;;;;;;;4.45;1.52;;;;;;;;;;5077607;28;20055;-80
2022/09/14 06:01:36;;;;;;;8.93;1.80;;;;;;;;;;5095788;28;20106;-80
2022/09/14 06:04:02;;;;;;;3.97;1.70;;;;;;;;;;5077463;28;20067;-80
2022/09/14 06:06:29;;;;;;;5.88;1.98;;;;;;;;;;5095611;28;20028;-80
2022/09/14 06:08:55;;;;;;;11.32;2.70;;;;;;;;;;5095668;28;20089;-80
2022/09/14 06:11:25;;;;;;;10.60;2.45;;;;;;;;;;5096067;28;20020;-80
2022/09/14 06:13:53;;;;;;;7.20;2.40;;;;;;;;;;5097433;28;20044;-80
2022/09/14 06:16:19;;;;;;;8.55;2.15;;;;;;;;;;5115981;28;20353;-80
2022/09/14 06:18:46;;;;;;;4.15;2.05;;;;;;;;;;5116217;28;20030;-80
2022/09/14 06:21:18;;;;;;;3.97;1.75;;;;;;;;;;5115949;28;20442;-80
2022/09/14 06:23:44;;;;;;;10.73;2.03;;;;;;;;;;5116136;28;20027;-80
2022/09/14 06:26:10;;;;;;;5.10;1.70;;;;;;;;;;5115748;28;20035;-80
2022/09/14 06:28:36;;;;;;;11.15;2.17;;;;;;;;;;5122637;27;20019;-80
2022/09/14 06:31:03;;;;;;;5.97;1.60;;;;;;;;;;5095504;28;20430;-79
2022/09/14 06:33:29;;;;;;;10.65;1.83;;;;;;;;;;5108647;28;20103;-79
2022/09/14 06:36:03;;;;;;;8.75;2.05;;;;;;;;;;5115501;28;20043;-80
2022/09/14 06:41:21;;;;;;;10.13;1.50;;;;;;;;;;5104137;28;20072;-80
2022/09/14 06:43:48;;;;;;;6.85;1.70;;;;;;;;;;5110456;28;20032;-80
2022/09/14 06:46:22;;;;;;;6.43;1.40;;;;;;;;;;5106047;28;20028;-80
2022/09/14 06:48:54;;;;;;;5.03;1.40;;;;;;;;;;5112221;28;20106;-80
2022/09/14 06:51:24;;;;;;;4.20;1.42;;;;;;;;;;5106347;27;20054;-80
2022/09/14 06:53:51;;;;;;;10.02;1.42;;;;;;;;;;5105811;28;20038;-80
2022/09/14 06:56:17;;;;;;;4.70;1.30;;;;;;;;;;5103592;28;20016;-80
2022/09/14 06:58:44;;;;;;;3.60;1.10;;;;;;;;;;5121310;27;20044;-80
2022/09/14 07:01:11;;;;;;;5.88;1.40;;;;;;;;;;5114966;28;20030;-80
2022/09/14 07:03:38;;;;;;;5.53;1.55;;;;;;;;;;5115018;28;20500;-80
2022/09/14 07:06:05;;;;;;;5.22;1.13;;;;;;;;;;5113195;28;20027;-80
2022/09/14 07:08:33;;;;;;;7.57;1.15;;;;;;;;;;5114130;28;20084;-80
2022/09/14 07:10:59;;;;;;;6.18;1.40;;;;;;;;;;5114798;28;20426;-80
2022/09/14 07:13:25;;;;;;;7.93;1.50;;;;;;;;;;5114518;28;20040;-80
2022/09/14 07:15:51;;;;;;;5.65;2.40;;;;;;;;;;5114950;28;20137;-80
2022/09/14 07:18:18;;;;;;;4.53;1.67;;;;;;;;;;5097028;28;20079;-79
2022/09/14 07:20:44;;;;;;;4.68;1.42;;;;;;;;;;5115204;28;20032;-81
2022/09/14 07:23:12;;;;;;;6.68;1.48;;;;;;;;;;5115520;28;20362;-80
2022/09/14 07:25:38;;;;;;;6.28;1.20;;;;;;;;;;5115042;28;20070;-80
2022/09/14 07:28:05;;;;;;;7.38;1.58;;;;;;;;;;5114615;28;20402;-79
2022/09/14 07:30:34;;;;;;;3.72;1.20;;;;;;;;;;5114740;28;20012;-82
2022/09/14 07:33:00;;;;;;;5.70;1.33;;;;;;;;;;5114784;28;20076;-82
2022/09/14 07:35:26;;;;;;;6.97;1.63;;;;;;;;;;5114900;28;20035;-81
2022/09/14 07:37:53;;;;;;;7.05;1.50;;;;;;;;;;5114413;28;20043;-79
2022/09/14 07:40:22;;;;;;;6.10;1.35;;;;;;;;;;5114536;28;20024;-79
2022/09/14 07:42:51;;;;;;;5.53;1.23;;;;;;;;;;5114445;28;20551;-81
2022/09/14 07:45:17;;;;;;;7.25;1.40;;;;;;;;;;5094472;28;20028;-81
2022/09/14 07:47:43;;;;;;;5.22;1.30;;;;;;;;;;5093986;28;20025;-81
2022/09/14 07:50:09;;;;;;;4.65;1.20;;;;;;;;;;5093797;28;20107;-81
2022/09/14 07:52:35;;;;;;;4.85;1.05;;;;;;;;;;5075653;28;20119;-81
2022/09/14 07:55:02;;;;;;;5.85;1.10;;;;;;;;;;5094259;28;20197;-81
2022/09/14 07:57:28;;;;;;;5.40;1.10;;;;;;;;;;5085909;28;20027;-80
2022/09/14 07:59:54;;;;;;;6.57;1.05;;;;;;;;;;5095505;28;20068;-80
2022/09/14 08:02:22;;;;;;;5.80;1.15;;;;;;;;;;5095712;28;20043;-80
2022/09/14 08:04:48;;;;;;;5.22;1.05;;;;;;;;;;5083229;28;20015;-80
2022/09/14 08:07:14;;;;;;;4.20;1.20;;;;;;;;;;5131799;27;20466;-80
2022/09/14 08:09:40;;;;;;;6.30;1.20;;;;;;;;;;5088872;28;20028;-79
2022/09/14 08:12:06;;;;;;;7.22;1.25;;;;;;;;;;5093479;28;20469;-79
2022/09/14 08:14:32;;;;;;;6.65;1.10;;;;;;;;;;5075129;28;20044;-78
2022/09/14 08:16:59;;;;;;;6.63;1.05;;;;;;;;;;5112831;28;20032;-79
2022/09/14 08:19:25;;;;;;;5.03;1.20;;;;;;;;;;5114148;28;20020;-78
2022/09/14 08:21:51;;;;;;;7.32;1.02;;;;;;;;;;5095248;28;20028;-78
2022/09/14 08:24:19;;;;;;;8.02;1.08;;;;;;;;;;5113755;28;20030;-78
2022/09/14 08:26:45;;;;;;;6.15;1.10;;;;;;;;;;5094754;28;20027;-78
2022/09/14 08:29:12;;;;;;;4.10;1.58;;;;;;;;;;5098598;28;20048;-78
2022/09/14 08:31:38;;;;;;;4.90;1.20;;;;;;;;;;5074706;28;20024;-78
2022/09/14 08:34:05;;;;;;;6.03;0.98;;;;;;;;;;5074772;28;20024;-78
2022/09/14 08:36:33;;;;;;;5.60;1.20;;;;;;;;;;5074936;28;20455;-78
2022/09/14 08:38:59;;;;;;;6.30;1.30;;;;;;;;;;5074604;28;20028;-78
2022/09/14 08:41:31;;;;;;;4.63;0.95;;;;;;;;;;5074724;28;20124;-78
2022/09/14 08:43:59;;;;;;;3.90;1.00;;;;;;;;;;5074827;28;20378;-78
2022/09/14 08:46:28;;;;;;;4.95;0.70;;;;;;;;;;5092747;28;20372;-78
2022/09/14 08:48:54;;;;;;;7.30;1.00;;;;;;;;;;5092619;28;20133;-78
2022/09/14 08:51:20;;;;;;;8.40;0.80;;;;;;;;;;5074676;28;20035;-78
2022/09/14 08:53:46;;;;;;;6.78;0.90;;;;;;;;;;5092970;28;20467;-79
2022/09/14 08:56:16;;;;;;;5.38;1.30;;;;;;;;;;5093008;28;20024;-82
2022/09/14 08:58:54;;;;;;;6.55;0.90;;;;;;;;;;5098708;27;20035;-83
2022/09/14 09:01:28;;;;;;;7.40;0.77;;;;;;;;;;5112864;28;20062;-81
2022/09/14 09:04:13;;;;;;;5.72;1.00;;;;;;;;;;5112880;28;20019;-81
2022/09/14 09:06:45;;;;;;;7.43;0.75;;;;;;;;;;5112605;28;20024;-81
2022/09/14 09:09:14;;;;;;;6.78;1.08;;;;;;;;;;5112994;28;20100;-81
2022/09/14 09:11:42;;;;;;;6.82;0.95;;;;;;;;;;5094650;28;20165;-81
2022/09/14 09:14:19;;;;;;;2.72;1.00;;;;;;;;;;5094391;28;20043;-83
2022/09/14 09:16:48;;;;;;;3.65;0.93;;;;;;;;;;5113051;28;20028;-84
2022/09/14 09:19:17;;;;;;;4.05;0.70;;;;;;;;;;5093972;28;20111;-84
2022/09/14 09:21:46;;;;;;;4.18;0.88;;;;;;;;;;5113021;28;20033;-83
2022/09/14 09:24:31;;;;;;;6.75;1.20;;;;;;;;;;5113127;28;20051;-84
2022/09/14 09:26:57;;;;;;;8.13;0.90;;;;;;;;;;5094186;28;20073;-84
2022/09/14 09:29:23;;;;;;;6.75;1.13;;;;;;;;;;5113076;28;20024;-84
2022/09/14 09:31:55;;;;;;;5.40;1.42;;;;;;;;;;5112826;28;20081;-85
2022/09/14 09:34:28;;;;;;;5.85;1.35;;;;;;;;;;5112918;28;20020;-85
2022/09/14 09:36:54;;;;;;;3.80;1.08;;;;;;;;;;5094396;28;20050;-85
2022/09/14 09:39:21;;;;;;;6.40;1.63;;;;;;;;;;5112598;28;20026;-82
2022/09/14 09:41:50;;;;;;;4.70;0.98;;;;;;;;;;5121077;28;20178;-82
2022/09/14 09:44:16;;;;;;;13.35;1.58;;;;;;;;;;5112745;28;20059;-82
2022/09/14 09:46:54;;;;;;;8.73;1.10;;;;;;;;;;5112461;28;20028;-82
2022/09/14 09:49:26;;;;;;;3.97;1.00;;;;;;;;;;5092114;28;20463;-82
2022/09/14 09:51:52;;;;;;;5.35;0.95;;;;;;;;;;5092633;28;20020;-83
2022/09/14 09:54:27;;;;;;;9.68;1.30;;;;;;;;;;5092171;28;20024;-83
2022/09/14 09:57:19;;;;;;;4.57;0.98;;;;;;;;;;5092224;28;20028;-83
2022/09/14 09:59:47;;;;;;;4.13;1.08;;;;;;;;;;5072352;28;20039;-82
2022/09/14 10:02:27;;;;;;;6.68;1.30;;;;;;;;;;5093906;28;20032;-83
2022/09/14 10:04:56;;;;;;;6.30;1.25;;;;;;;;;;5094235;28;20380;-83
2022/09/14 10:07:22;;;;;;;8.50;1.95;;;;;;;;;;5093827;28;20343;-82
2022/09/14 10:09:59;;;;;;;4.97;1.17;;;;;;;;;;5111327;28;20035;-84
2022/09/14 10:12:25;;;;;;;4.68;0.80;;;;;;;;;;5133228;28;20018;-82
2022/09/14 10:15:02;;;;;;;5.53;0.82;;;;;;;;;;5104531;28;20028;-83
2022/09/14 10:17:28;;;;;;;6.35;1.10;;;;;;;;;;5112419;28;20066;-83
2022/09/14 10:19:57;;;;;;;3.78;0.80;;;;;;;;;;5112155;28;20069;-83
2022/09/14 10:22:29;;;;;;;3.78;0.80;;;;;;;;;;5112242;28;20031;-83
2022/09/14 10:25:14;;;;;;;8.48;1.00;;;;;;;;;;5112152;28;20020;-83
2022/09/14 10:27:47;;;;;;;6.95;1.20;;;;;;;;;;5094813;28;20042;-83
2022/09/14 10:30:16;;;;;;;4.97;0.82;;;;;;;;;;5077815;28;20078;-83
2022/09/14 10:32:44;;;;;;;4.35;0.68;;;;;;;;;;5114399;28;20020;-83
2022/09/14 10:35:12;;;;;;;5.22;0.77;;;;;;;;;;5115666;28;20096;-84
2022/09/14 10:37:45;;;;;;;6.70;0.77;;;;;;;;;;5115870;28;20020;-83
2022/09/14 10:40:15;;;;;;;2.33;0.68;;;;;;;;;;5115617;28;20019;-83
2022/09/14 10:42:57;;;;;;;5.03;0.90;;;;;;;;;;5097475;28;20028;-83
2022/09/14 10:45:34;;;;;;;11.33;0.80;;;;;;;;;;5097220;28;20032;-84
2022/09/14 10:48:12;;;;;;;6.88;0.90;;;;;;;;;;5095039;28;20249;-83
2022/09/14 10:50:57;;;;;;;5.57;0.57;;;;;;;;;;5095233;28;20023;-87
2022/09/14 10:53:35;;;;;;;8.68;1.00;;;;;;;;;;5076702;28;20036;-84
2022/09/14 10:56:20;;;;;;;7.57;0.82;;;;;;;;;;5095005;28;20097;-84
2022/09/14 10:58:58;;;;;;;5.18;0.70;;;;;;;;;;5109903;28;20783;-83
2022/09/14 11:01:31;;;;;;;8.75;0.90;;;;;;;;;;5115270;28;20019;-82
2022/09/14 11:04:15;;;;;;;5.63;0.75;;;;;;;;;;5115152;28;20023;-82
2022/09/14 11:06:50;;;;;;;7.03;1.42;;;;;;;;;;5115041;28;20024;-83
2022/09/14 11:09:25;;;;;;;4.20;1.13;;;;;;;;;;5118772;27;20137;-80
2022/09/14 11:12:03;;;;;;;7.38;1.10;;;;;;;;;;5107445;27;20047;-80
2022/09/14 11:14:38;;;;;;;5.80;0.88;;;;;;;;;;5114783;28;20040;-80
2022/09/14 11:17:04;;;;;;;5.75;1.20;;;;;;;;;;5115396;28;20080;-81
2022/09/14 11:19:33;;;;;;;6.45;0.70;;;;;;;;;;5114987;28;20454;-81
2022/09/14 11:22:06;;;;;;;4.78;0.85;;;;;;;;;;5119651;27;20085;-81
2022/09/14 11:24:32;;;;;;;5.05;0.88;;;;;;;;;;5102789;28;20073;-81
2022/09/14 11:27:04;;;;;;;2.90;0.60;;;;;;;;;;5114848;28;20376;-82
2022/09/14 11:30:00;;;;;;;5.00;1.25;;;;;;;;;;5097910;28;20458;-83
2022/09/14 11:32:32;;;;;;;3.15;0.50;;;;;;;;;;5076948;28;20420;-82
2022/09/14 11:35:12;;;;;;;4.90;0.60;;;;;;;;;;5109287;28;20027;-83
2022/09/14 11:37:38;;;;;;;4.32;0.60;;;;;;;;;;5113684;28;20066;-82
2022/09/14 11:40:09;;;;;;;7.00;0.70;;;;;;;;;;5112183;28;20024;-85
2022/09/14 11:42:55;;;;;;;4.72;0.63;;;;;;;;;;5112438;28;20088;-85
2022/09/14 11:45:25;;;;;;;7.90;2.38;;;;;;;;;;5114142;28;20027;-82
2022/09/14 11:47:57;;;;;;;5.85;0.70;;;;;;;;;;5106759;28;20028;-83
2022/09/14 11:50:27;;;;;;;4.15;0.65;;;;;;;;;;5101719;28;20034;-82
2022/09/14 11:53:11;;;;;;;5.18;0.63;;;;;;;;;;5114543;28;20382;-82
2022/09/14 11:55:40;;;;;;;3.45;0.47;;;;;;;;;;5113020;28;20020;-83
2022/09/14 11:58:07;;;;;;;8.02;1.10;;;;;;;;;;5114858;27;20536;-83
2022/09/14 12:00:59;;;;;;;6.28;0.65;;;;;;;;;;5116910;27;20081;-83
2022/09/14 12:03:45;;;;;;;3.75;0.73;;;;;;;;;;5114431;28;20034;-83
2022/09/14 12:06:37;;;;;;;4.25;0.73;;;;;;;;;;5112973;28;20019;-84
2022/09/14 12:09:23;;;;;;;3.78;0.63;;;;;;;;;;5090103;28;20111;-83
2022/09/14 12:11:50;;;;;;;8.25;0.73;;;;;;;;;;5076113;28;20020;-80
2022/09/14 12:14:27;;;;;;;7.00;0.82;;;;;;;;;;5093864;28;20040;-83
2022/09/14 12:17:12;;;;;;;2.53;0.63;;;;;;;;;;5093945;28;20024;-83
2022/09/14 12:19:38;;;;;;;4.57;0.82;;;;;;;;;;5094548;28;20043;-83
2022/09/14 12:22:18;;;;;;;2.65;0.63;;;;;;;;;;5093964;28;20020;-81
2022/09/14 12:24:44;;;;;;;3.47;0.73;;;;;;;;;;5094024;28;20047;-83
2022/09/14 12:27:22;;;;;;;4.07;0.70;;;;;;;;;;5093492;28;20339;-83
2022/09/14 12:29:48;;;;;;;2.53;0.75;;;;;;;;;;5093514;28;20103;-82
2022/09/14 12:32:38;;;;;;;3.65;0.60;;;;;;;;;;5101172;27;20047;-83
2022/09/14 12:35:39;;;;;;;3.40;0.90;;;;;;;;;;5095359;28;20103;-83
2022/09/14 12:38:23;;;;;;;2.75;0.75;;;;;;;;;;5011444;28;20511;-83
2022/09/14 12:40:49;;;;;;;4.03;0.70;;;;;;;;;;5105830;28;20036;-83
2022/09/14 12:43:34;;;;;;;6.75;0.95;;;;;;;;;;5113648;28;20020;-83
2022/09/14 12:46:01;;;;;;;7.18;0.88;;;;;;;;;;5091122;28;20381;-83
2022/09/14 12:51:15;;;;;;;5.65;0.80;;;;;;;;;;5093285;28;20046;-83
2022/09/14 12:53:42;;;;;;;5.15;0.90;;;;;;;;;;5099689;28;20024;-82
2022/09/14 12:56:15;;;;;;;4.43;1.05;;;;;;;;;;5093395;28;20106;-83
2022/09/14 12:58:50;;;;;;;7.15;0.93;;;;;;;;;;5093599;28;20093;-83
2022/09/14 13:01:35;;;;;;;3.58;0.80;;;;;;;;;;5092949;28;20024;-83
2022/09/14 13:04:03;;;;;;;4.30;0.95;;;;;;;;;;5092758;28;20028;-82
2022/09/14 13:06:52;;;;;;;8.32;1.73;;;;;;;;;;5103879;28;20046;-81
2022/09/14 13:09:25;;;;;;;6.13;1.20;;;;;;;;;;5093186;28;20073;-81
2022/09/14 13:11:58;;;;;;;5.68;1.15;;;;;;;;;;5103247;28;20084;-81
2022/09/14 13:14:29;;;;;;;6.05;1.40;;;;;;;;;;5117010;28;20116;-81
2022/09/14 13:16:56;;;;;;;4.88;1.00;;;;;;;;;;5099633;28;20024;-81
2022/09/14 13:19:29;;;;;;;5.93;1.17;;;;;;;;;;5113277;28;20035;-81
2022/09/14 13:21:57;;;;;;;4.47;1.60;;;;;;;;;;5112899;28;20074;-81
2022/09/14 13:24:43;;;;;;;3.78;0.88;;;;;;;;;;5112695;28;20038;-81
2022/09/14 13:27:19;;;;;;;6.50;1.02;;;;;;;;;;5112100;28;20258;-82
2022/09/14 13:29:45;;;;;;;4.38;0.65;;;;;;;;;;5112636;28;20102;-81
2022/09/14 13:32:13;;;;;;;2.78;0.80;;;;;;;;;;5121652;28;20445;-82
2022/09/14 13:34:39;;;;;;;6.05;0.95;;;;;;;;;;5118941;28;20023;-85
2022/09/14 13:37:05;;;;;;;4.13;0.98;;;;;;;;;;5112684;28;20462;-85
2022/09/14 13:39:33;;;;;;;5.75;0.80;;;;;;;;;;5113150;28;20205;-83
2022/09/14 13:42:00;;;;;;;2.05;0.60;;;;;;;;;;5112662;28;20204;-83
2022/09/14 13:44:28;;;;;;;8.18;1.08;;;;;;;;;;5112535;28;20031;-84
2022/09/14 13:46:56;;;;;;;5.07;0.77;;;;;;;;;;5094158;28;20028;-83
2022/09/14 13:49:22;;;;;;;6.75;0.80;;;;;;;;;;5112597;28;20020;-83
2022/09/14 13:51:49;;;;;;;5.13;0.98;;;;;;;;;;5112911;28;20089;-82
2022/09/14 13:54:26;;;;;;;5.88;1.10;;;;;;;;;;5092461;28;20032;-83
2022/09/14 13:57:15;;;;;;;4.40;0.80;;;;;;;;;;5092155;28;20048;-83
2022/09/14 14:00:00;;;;;;;3.33;1.00;;;;;;;;;;5099725;28;20095;-82
2022/09/14 14:02:27;;;;;;;3.88;0.80;;;;;;;;;;5096660;28;20028;-83
2022/09/14 14:04:53;;;;;;;3.00;0.80;;;;;;;;;;5093722;28;20439;-82
2022/09/14 14:07:21;;;;;;;6.95;0.90;;;;;;;;;;5096155;28;20040;-82
2022/09/14 14:09:55;;;;;;;6.15;1.17;;;;;;;;;;5096442;28;20020;-83
2022/09/14 14:12:23;;;;;;;4.13;0.80;;;;;;;;;;5102863;28;20463;-82
2022/09/14 14:15:12;;;;;;;4.68;1.00;;;;;;;;;;5116493;28;20425;-82
2022/09/14 14:17:40;;;;;;;8.25;0.95;;;;;;;;;;5103499;28;20042;-83
2022/09/14 14:20:24;;;;;;;3.58;0.77;;;;;;;;;;5094862;28;20027;-81
2022/09/14 14:22:58;;;;;;;8.32;1.10;;;;;;;;;;5098225;28;20127;-82
2022/09/14 14:25:28;;;;;;;4.72;1.00;;;;;;;;;;5103355;27;20104;-83
2022/09/14 14:27:59;;;;;;;5.63;1.10;;;;;;;;;;5116110;28;20084;-83
2022/09/14 14:30:27;;;;;;;3.92;0.80;;;;;;;;;;5102624;28;20016;-81
2022/09/14 14:32:54;;;;;;;4.38;0.80;;;;;;;;;;5088716;28;20019;-84
2022/09/14 14:35:21;;;;;;;5.70;1.52;;;;;;;;;;5108768;28;20026;-83
2022/09/14 14:37:49;;;;;;;7.55;1.48;;;;;;;;;;5079385;27;20379;-83
2022/09/14 14:40:15;;;;;;;4.97;1.30;;;;;;;;;;5124438;27;20019;-83
2022/09/14 14:42:41;;;;;;;5.15;0.90;;;;;;;;;;5113588;28;20023;-82
2022/09/14 14:45:18;;;;;;;6.13;1.17;;;;;;;;;;5112396;27;20095;-83
2022/09/14 14:47:49;;;;;;;6.72;0.90;;;;;;;;;;5115000;27;20031;-82
2022/09/14 14:50:20;;;;;;;6.50;1.10;;;;;;;;;;5115555;28;20020;-82
2022/09/14 14:52:46;;;;;;;4.72;1.20;;;;;;;;;;5105684;27;20089;-83
2022/09/14 14:55:13;;;;;;;7.90;1.20;;;;;;;;;;5112895;28;20073;-83
2022/09/14 14:57:39;;;;;;;8.20;1.00;;;;;;;;;;5108502;28;20024;-83
2022/09/14 15:00:10;;;;;;;3.83;1.08;;;;;;;;;;5129332;27;20027;-83
2022/09/14 15:02:36;;;;;;;3.03;1.08;;;;;;;;;;5135970;27;20384;-82
2022/09/14 15:05:02;;;;;;;3.20;0.80;;;;;;;;;;5117352;27;20027;-84